createdAt,value
2018-10-16T00:00:38.660Z,2.97
2018-10-16T00:02:43.897Z,3.17
2018-10-16T00:04:49.079Z,2.80
2018-10-16T00:06:57.087Z,3.50
2018-10-16T00:09:02.074Z,2.57
2018-10-16T00:11:08.118Z,2.57
2018-10-16T00:13:13.289Z,2.73
2018-10-16T00:15:19.243Z,2.50
2018-10-16T00:17:24.213Z,2.27
2018-10-16T00:19:32.543Z,2.70
2018-10-16T00:21:37.641Z,2.60
2018-10-16T00:23:44.427Z,2.30
2018-10-16T00:25:49.497Z,2.60
2018-10-16T00:27:54.800Z,2.57
2018-10-16T00:30:01.027Z,2.73
2018-10-16T00:32:06.850Z,2.67
2018-10-16T00:34:12.462Z,2.27
2018-10-16T00:36:17.670Z,2.50
2018-10-16T00:38:22.826Z,2.80
2018-10-16T00:40:27.955Z,2.50
2018-10-16T00:42:32.955Z,3.13
2018-10-16T00:44:37.847Z,3.10
2018-10-16T00:46:43.896Z,2.37
2018-10-16T00:48:51.174Z,2.60
2018-10-16T00:50:56.508Z,2.50
2018-10-16T00:53:01.603Z,2.60
2018-10-16T00:55:06.669Z,2.60
2018-10-16T00:57:12.163Z,2.80
2018-10-16T00:59:17.161Z,3.17
2018-10-16T01:01:36.140Z,2.33
2018-10-16T01:03:41.124Z,2.60
2018-10-16T01:05:50.228Z,2.17
2018-10-16T01:07:56.820Z,2.47
2018-10-16T01:10:02.061Z,2.67
2018-10-16T01:12:07.288Z,2.40
2018-10-16T01:14:12.451Z,2.43
2018-10-16T01:16:17.344Z,2.47
2018-10-16T01:18:22.301Z,2.57
2018-10-16T01:20:27.527Z,2.93
2018-10-16T01:22:32.749Z,2.33
2018-10-16T01:24:37.702Z,2.53
2018-10-16T01:26:42.882Z,2.47
2018-10-16T01:28:48.406Z,2.07
2018-10-16T01:30:58.105Z,2.43
2018-10-16T01:33:03.749Z,3.13
2018-10-16T01:35:08.789Z,2.03
2018-10-16T01:37:13.956Z,2.20
2018-10-16T01:39:18.757Z,2.40
2018-10-16T01:41:24.135Z,2.57
2018-10-16T01:43:29.191Z,2.67
2018-10-16T01:45:34.360Z,2.97
2018-10-16T01:47:39.528Z,3.20
2018-10-16T01:49:44.906Z,3.50
2018-10-16T01:51:49.818Z,3.40
2018-10-16T01:53:55.370Z,3.57
2018-10-16T01:56:00.410Z,3.30
2018-10-16T01:58:05.908Z,3.40
2018-10-16T02:00:11.640Z,3.07
2018-10-16T02:02:16.683Z,3.30
2018-10-16T02:04:21.899Z,3.27
2018-10-16T02:06:26.831Z,3.63
2018-10-16T02:08:31.824Z,9.57
2018-10-16T02:10:36.658Z,5.70
2018-10-16T02:12:41.809Z,7.53
2018-10-16T02:14:46.889Z,6.57
2018-10-16T02:16:52.158Z,7.63
2018-10-16T02:18:57.418Z,5.27
2018-10-16T02:21:02.561Z,4.90
2018-10-16T02:23:07.835Z,4.50
2018-10-16T02:25:13.689Z,4.70
2018-10-16T02:27:19.447Z,4.47
2018-10-16T02:29:25.089Z,4.47
2018-10-16T02:31:30.309Z,4.00
2018-10-16T02:33:36.013Z,3.50
2018-10-16T02:35:41.539Z,3.30
2018-10-16T02:37:47.598Z,4.20
2018-10-16T02:39:53.080Z,4.10
2018-10-16T02:41:58.836Z,3.77
2018-10-16T02:44:04.254Z,3.07
2018-10-16T02:46:09.621Z,3.30
2018-10-16T02:48:14.917Z,3.53
2018-10-16T02:50:20.244Z,3.27
2018-10-16T02:52:25.915Z,3.30
2018-10-16T02:54:32.567Z,3.03
2018-10-16T02:56:38.561Z,2.83
2018-10-16T02:58:44.351Z,3.40
2018-10-16T03:00:49.840Z,3.17
2018-10-16T03:02:55.448Z,3.60
2018-10-16T03:05:01.036Z,2.97
2018-10-16T03:07:06.694Z,3.30
2018-10-16T03:09:13.096Z,3.63
2018-10-16T03:11:18.770Z,2.60
2018-10-16T03:13:24.364Z,3.43
2018-10-16T03:15:29.877Z,2.77
2018-10-16T03:17:35.558Z,3.00
2018-10-16T03:19:41.068Z,2.93
2018-10-16T03:21:46.533Z,3.40
2018-10-16T03:23:52.377Z,3.20
2018-10-16T03:25:57.967Z,3.17
2018-10-16T03:28:03.941Z,3.00
2018-10-16T03:30:09.141Z,2.87
2018-10-16T03:32:14.504Z,3.20
2018-10-16T03:34:19.940Z,3.10
2018-10-16T03:36:26.593Z,2.90
2018-10-16T03:38:32.195Z,2.80
2018-10-16T03:40:39.543Z,3.13
2018-10-16T03:42:45.547Z,3.27
2018-10-16T03:44:51.371Z,2.47
2018-10-16T03:46:57.010Z,2.60
2018-10-16T03:49:02.618Z,2.90
2018-10-16T03:51:08.210Z,3.50
2018-10-16T03:53:16.897Z,3.10
2018-10-16T03:55:23.294Z,2.53
2018-10-16T03:57:28.872Z,3.70
2018-10-16T03:59:34.729Z,2.60
2018-10-16T04:01:39.973Z,3.10
2018-10-16T04:03:45.443Z,2.80
2018-10-16T04:05:51.290Z,3.03
2018-10-16T04:07:59.479Z,2.90
2018-10-16T04:10:05.178Z,2.80
2018-10-16T04:12:10.950Z,3.20
2018-10-16T04:14:16.421Z,2.73
2018-10-16T04:16:22.279Z,2.30
2018-10-16T04:18:27.624Z,2.70
2018-10-16T04:20:33.184Z,2.60
2018-10-16T04:22:38.575Z,2.70
2018-10-16T04:24:44.474Z,3.00
2018-10-16T04:26:50.368Z,2.37
2018-10-16T04:28:56.064Z,2.93
2018-10-16T04:31:01.325Z,2.30
2018-10-16T04:33:07.095Z,2.73
2018-10-16T04:35:12.922Z,2.80
2018-10-16T04:37:18.472Z,2.57
2018-10-16T04:39:24.514Z,2.33
2018-10-16T04:41:30.621Z,2.23
2018-10-16T04:43:36.346Z,3.03
2018-10-16T04:45:41.798Z,2.50
2018-10-16T04:47:47.236Z,2.93
2018-10-16T04:49:52.804Z,2.37
2018-10-16T04:51:58.273Z,2.83
2018-10-16T04:54:04.354Z,2.70
2018-10-16T04:56:10.278Z,3.30
2018-10-16T04:58:16.118Z,2.43
2018-10-16T05:00:21.609Z,2.50
2018-10-16T05:02:27.419Z,2.43
2018-10-16T05:04:32.880Z,2.73
2018-10-16T05:06:38.284Z,2.83
2018-10-16T05:08:44.771Z,2.83
2018-10-16T05:10:49.980Z,2.40
2018-10-16T05:12:55.805Z,2.40
2018-10-16T05:15:01.622Z,3.20
2018-10-16T05:17:08.204Z,2.40
2018-10-16T05:19:13.916Z,2.50
2018-10-16T05:21:19.311Z,2.47
2018-10-16T05:23:25.185Z,2.60
2018-10-16T05:25:31.355Z,2.30
2018-10-16T05:27:37.000Z,2.97
2018-10-16T05:29:42.807Z,2.70
2018-10-16T05:31:48.279Z,2.43
2018-10-16T05:33:54.062Z,2.67
2018-10-16T05:35:59.994Z,2.57
2018-10-16T05:38:06.318Z,2.70
2018-10-16T05:40:12.817Z,2.70
2018-10-16T05:42:19.775Z,2.17
2018-10-16T05:44:25.524Z,2.60
2018-10-16T05:46:31.208Z,2.33
2018-10-16T05:48:38.432Z,2.30
2018-10-16T05:50:44.446Z,2.50
2018-10-16T05:52:49.902Z,2.43
2018-10-16T05:54:57.206Z,2.70
2018-10-16T05:57:02.655Z,2.90
2018-10-16T05:59:08.431Z,2.30
2018-10-16T06:01:13.464Z,2.20
2018-10-16T06:03:18.916Z,2.23
2018-10-16T06:05:24.493Z,2.20
2018-10-16T06:07:33.773Z,2.37
2018-10-16T06:09:39.680Z,2.27
2018-10-16T06:11:45.038Z,2.10
2018-10-16T06:13:50.555Z,1.87
2018-10-16T06:15:56.345Z,2.20
2018-10-16T06:18:02.813Z,2.47
2018-10-16T06:20:08.455Z,2.33
2018-10-16T06:22:13.757Z,2.73
2018-10-16T06:24:19.309Z,2.07
2018-10-16T06:26:24.593Z,2.10
2018-10-16T06:28:31.063Z,2.30
2018-10-16T06:30:36.272Z,2.20
2018-10-16T06:32:42.275Z,2.57
2018-10-16T06:34:48.027Z,1.63
2018-10-16T06:36:53.435Z,2.10
2018-10-16T06:38:58.735Z,2.03
2018-10-16T06:41:04.382Z,2.47
2018-10-16T06:43:10.241Z,2.23
2018-10-16T06:45:15.778Z,2.13
2018-10-16T06:47:21.370Z,2.03
2018-10-16T06:49:26.914Z,1.87
2018-10-16T06:51:32.104Z,2.30
2018-10-16T06:53:37.947Z,2.37
2018-10-16T06:55:43.421Z,2.50
2018-10-16T06:57:49.176Z,1.90
2018-10-16T06:59:54.621Z,2.10
2018-10-16T07:02:00.173Z,2.23
2018-10-16T07:04:05.643Z,2.13
2018-10-16T07:06:11.020Z,1.70
2018-10-16T07:08:16.436Z,2.23
2018-10-16T07:10:21.882Z,2.20
2018-10-16T07:12:27.428Z,2.30
2018-10-16T07:14:32.539Z,1.80
2018-10-16T07:16:38.067Z,2.50
2018-10-16T07:18:43.645Z,2.07
2018-10-16T07:20:49.278Z,2.20
2018-10-16T07:22:54.836Z,2.90
2018-10-16T07:24:59.945Z,1.83
2018-10-16T07:27:05.480Z,2.07
2018-10-16T07:29:24.718Z,2.00
2018-10-16T07:31:30.181Z,2.10
2018-10-16T07:33:35.358Z,2.40
2018-10-16T07:35:41.109Z,2.10
2018-10-16T07:37:46.784Z,2.43
2018-10-16T07:39:52.176Z,2.00
2018-10-16T07:41:58.017Z,1.97
2018-10-16T07:44:03.475Z,1.90
2018-10-16T07:46:09.096Z,2.07
2018-10-16T07:48:15.322Z,2.30
2018-10-16T07:50:20.509Z,1.93
2018-10-16T07:52:25.634Z,1.77
2018-10-16T07:54:31.041Z,2.40
2018-10-16T07:56:36.502Z,2.50
2018-10-16T07:58:41.869Z,1.90
2018-10-16T08:00:47.296Z,1.90
2018-10-16T08:02:52.765Z,1.70
2018-10-16T08:04:58.694Z,2.00
2018-10-16T08:07:04.097Z,2.30
2018-10-16T08:09:09.408Z,2.33
2018-10-16T08:11:14.892Z,2.57
2018-10-16T08:13:20.577Z,2.17
2018-10-16T08:15:25.990Z,1.90
2018-10-16T08:17:31.322Z,2.23
2018-10-16T08:19:37.078Z,2.10
2018-10-16T08:21:42.435Z,1.87
2018-10-16T08:23:48.310Z,2.07
2018-10-16T08:25:53.674Z,2.40
2018-10-16T08:27:59.041Z,1.93
2018-10-16T08:30:04.930Z,2.20
2018-10-16T08:32:10.544Z,2.37
2018-10-16T08:34:16.350Z,1.90
2018-10-16T08:36:22.025Z,2.33
2018-10-16T08:38:28.409Z,2.33
2018-10-16T08:40:34.240Z,2.33
2018-10-16T08:42:40.549Z,1.83
2018-10-16T08:44:46.093Z,2.30
2018-10-16T08:46:51.506Z,2.40
2018-10-16T08:48:57.143Z,2.27
2018-10-16T08:51:02.205Z,2.17
2018-10-16T08:53:07.584Z,2.57
2018-10-16T08:55:13.034Z,2.47
2018-10-16T08:57:18.440Z,2.20
2018-10-16T08:59:24.669Z,3.83
2018-10-16T09:01:30.128Z,29.20
2018-10-16T09:03:35.167Z,13.90
2018-10-16T09:05:44.049Z,10.80
2018-10-16T09:07:49.059Z,7.50
2018-10-16T09:09:54.262Z,7.90
2018-10-16T09:11:59.494Z,7.43
2018-10-16T09:14:04.738Z,7.03
2018-10-16T09:16:09.948Z,7.60
2018-10-16T09:18:17.166Z,7.70
2018-10-16T09:20:22.795Z,7.73
2018-10-16T09:22:28.083Z,7.67
2018-10-16T09:24:33.592Z,6.53
2018-10-16T09:26:38.641Z,7.40
2018-10-16T09:28:44.079Z,8.10
2018-10-16T09:30:49.148Z,6.00
2018-10-16T09:32:54.769Z,6.27
2018-10-16T09:35:00.071Z,5.70
2018-10-16T09:37:05.727Z,5.83
2018-10-16T09:39:11.225Z,5.43
2018-10-16T09:41:16.636Z,6.23
2018-10-16T09:43:22.318Z,5.10
2018-10-16T09:45:27.562Z,5.00
2018-10-16T09:47:33.711Z,4.87
2018-10-16T09:49:39.812Z,5.37
2018-10-16T09:51:45.320Z,5.53
2018-10-16T09:53:51.236Z,4.83
2018-10-16T09:55:56.457Z,5.30
2018-10-16T09:58:02.372Z,5.87
2018-10-16T10:00:08.246Z,4.83
2018-10-16T10:02:13.751Z,5.13
2018-10-16T10:04:18.953Z,5.07
2018-10-16T10:06:24.706Z,4.60
2018-10-16T10:08:30.139Z,5.40
2018-10-16T10:10:35.392Z,4.73
2018-10-16T10:12:41.181Z,5.23
2018-10-16T10:14:47.317Z,5.50
2018-10-16T10:16:52.937Z,5.50
2018-10-16T10:18:58.846Z,5.03
2018-10-16T10:21:04.422Z,5.13
2018-10-16T10:23:10.804Z,5.30
2018-10-16T10:25:16.388Z,5.77
2018-10-16T10:27:21.689Z,5.07
2018-10-16T10:29:27.321Z,5.00
2018-10-16T10:31:32.923Z,4.90
2018-10-16T10:33:38.017Z,4.50
2018-10-16T10:35:43.694Z,4.77
2018-10-16T10:37:49.447Z,4.77
2018-10-16T10:39:54.939Z,4.70
2018-10-16T10:42:00.497Z,4.97
2018-10-16T10:44:06.124Z,4.90
2018-10-16T10:46:11.395Z,4.53
2018-10-16T10:48:19.042Z,5.57
2018-10-16T10:50:25.636Z,4.33
2018-10-16T10:52:30.768Z,4.70
2018-10-16T10:54:36.372Z,4.90
2018-10-16T10:56:45.119Z,5.30
2018-10-16T10:58:50.784Z,4.60
2018-10-16T11:00:55.966Z,4.50
2018-10-16T11:03:01.620Z,4.67
2018-10-16T11:05:07.176Z,4.50
2018-10-16T11:07:12.683Z,4.83
2018-10-16T11:09:18.275Z,5.30
2018-10-16T11:11:24.161Z,4.50
2018-10-16T11:13:30.182Z,5.20
2018-10-16T11:15:35.831Z,4.70
2018-10-16T11:17:41.739Z,4.90
2018-10-16T11:19:47.298Z,3.87
2018-10-16T11:21:52.524Z,4.40
2018-10-16T11:23:57.933Z,3.87
2018-10-16T11:26:03.283Z,4.77
2018-10-16T11:28:09.122Z,4.77
2018-10-16T11:30:15.873Z,5.30
2018-10-16T11:32:21.275Z,5.03
2018-10-16T11:34:27.366Z,5.20
2018-10-16T11:36:33.133Z,5.90
2018-10-16T11:38:38.242Z,4.70
2018-10-16T11:40:43.846Z,5.03
2018-10-16T11:42:49.719Z,5.00
2018-10-16T11:44:54.996Z,4.87
2018-10-16T11:47:01.131Z,4.53
2018-10-16T11:49:06.672Z,3.80
2018-10-16T11:51:12.014Z,4.40
2018-10-16T11:53:17.894Z,4.93
2018-10-16T11:55:23.164Z,4.53
2018-10-16T11:57:28.526Z,4.73
2018-10-16T11:59:34.132Z,5.27
2018-10-16T12:01:39.700Z,4.67
2018-10-16T12:03:45.446Z,4.60
2018-10-16T12:05:50.765Z,4.00
2018-10-16T12:07:56.444Z,4.30
2018-10-16T12:10:02.348Z,4.63
2018-10-16T12:12:07.560Z,4.77
2018-10-16T12:14:14.145Z,4.50
2018-10-16T12:16:19.867Z,5.20
2018-10-16T12:18:29.861Z,4.70
2018-10-16T12:20:41.863Z,4.70
2018-10-16T12:22:47.752Z,4.50
2018-10-16T12:24:53.270Z,4.13
2018-10-16T12:26:58.966Z,4.23
2018-10-16T12:29:04.758Z,4.43
2018-10-16T12:31:10.385Z,4.43
2018-10-16T12:33:16.056Z,4.20
2018-10-16T12:35:21.759Z,4.17
2018-10-16T12:37:27.489Z,4.87
2018-10-16T12:39:32.924Z,4.87
2018-10-16T12:41:38.483Z,4.37
2018-10-16T12:43:44.859Z,4.50
2018-10-16T12:45:50.930Z,4.10
2018-10-16T12:47:57.009Z,5.40
2018-10-16T12:50:03.166Z,4.40
2018-10-16T12:52:08.896Z,4.50
2018-10-16T12:54:14.522Z,4.87
2018-10-16T12:56:21.124Z,4.70
2018-10-16T12:58:27.335Z,4.10
2018-10-16T13:00:33.430Z,4.30
2018-10-16T13:02:39.156Z,4.47
2018-10-16T13:04:45.814Z,5.20
2018-10-16T13:06:51.331Z,5.30
2018-10-16T13:08:58.106Z,5.60
2018-10-16T13:11:04.457Z,6.10
2018-10-16T13:13:09.817Z,6.83
2018-10-16T13:15:15.866Z,7.17
2018-10-16T13:17:21.828Z,7.70
2018-10-16T13:19:29.259Z,7.47
2018-10-16T13:21:34.548Z,8.13
2018-10-16T13:23:39.826Z,9.40
2018-10-16T13:25:45.156Z,8.73
2018-10-16T13:27:51.045Z,13.03
2018-10-16T13:29:56.493Z,8.37
2018-10-16T13:32:02.004Z,9.43
2018-10-16T13:34:07.391Z,11.30
2018-10-16T13:36:14.159Z,9.00
2018-10-16T13:38:19.673Z,8.40
2018-10-16T13:40:25.165Z,9.53
2018-10-16T13:42:31.058Z,10.00
2018-10-16T13:44:36.828Z,6.87
2018-10-16T13:46:42.899Z,9.30
2018-10-16T13:48:48.313Z,8.87
2018-10-16T13:50:53.754Z,9.30
2018-10-16T13:52:59.178Z,8.17
2018-10-16T13:55:04.710Z,7.90
2018-10-16T13:57:10.285Z,8.40
2018-10-16T13:59:16.029Z,8.03
2018-10-16T14:01:21.010Z,7.80
2018-10-16T14:03:26.195Z,8.80
2018-10-16T14:05:31.922Z,7.70
2018-10-16T14:07:37.937Z,9.13
2018-10-16T14:09:43.379Z,8.70
2018-10-16T14:11:49.109Z,9.67
2018-10-16T14:13:54.721Z,9.43
2018-10-16T14:16:00.520Z,10.23
2018-10-16T14:18:06.352Z,10.17
2018-10-16T14:20:13.245Z,9.30
2018-10-16T14:22:19.011Z,8.67
2018-10-16T14:24:24.479Z,9.00
2018-10-16T14:26:29.963Z,9.93
2018-10-16T14:28:35.384Z,8.60
2018-10-16T14:30:40.663Z,8.33
2018-10-16T14:32:46.076Z,7.93
2018-10-16T14:34:51.758Z,8.53
2018-10-16T14:36:57.516Z,8.90
2018-10-16T14:39:03.371Z,7.87
2018-10-16T14:41:09.574Z,8.20
2018-10-16T14:43:15.255Z,9.20
2018-10-16T14:45:21.079Z,8.10
2018-10-16T14:47:26.700Z,7.40
2018-10-16T14:49:32.275Z,8.70
2018-10-16T14:51:38.774Z,8.30
2018-10-16T14:53:44.106Z,8.43
2018-10-16T14:55:50.216Z,9.07
2018-10-16T14:57:55.898Z,8.60
2018-10-16T15:00:02.240Z,7.97
2018-10-16T15:02:08.139Z,8.80
2018-10-16T15:04:13.863Z,7.90
2018-10-16T15:06:19.524Z,7.87
2018-10-16T15:08:25.418Z,8.83
2018-10-16T15:10:30.997Z,8.13
2018-10-16T15:12:37.185Z,8.80
2018-10-16T15:14:42.600Z,8.00
2018-10-16T15:16:48.153Z,7.70
2018-10-16T15:21:03.797Z,7.83
2018-10-16T15:23:09.693Z,7.70
2018-10-16T15:25:15.195Z,7.33
2018-10-16T15:27:20.811Z,7.20
2018-10-16T15:29:26.663Z,7.57
2018-10-16T15:31:32.258Z,7.90
2018-10-16T15:33:37.573Z,7.43
2018-10-16T15:35:43.213Z,7.47
2018-10-16T15:37:48.719Z,6.87
2018-10-16T15:39:54.522Z,7.90
2018-10-16T15:42:00.421Z,7.53
2018-10-16T15:44:06.754Z,7.50
2018-10-16T15:46:12.183Z,7.10
2018-10-16T15:48:17.815Z,7.27
2018-10-16T15:50:23.517Z,8.13
2018-10-16T15:52:29.462Z,7.53
2018-10-16T15:54:35.520Z,7.90
2018-10-16T15:56:41.140Z,7.37
2018-10-16T15:58:46.384Z,8.20
2018-10-16T16:00:52.377Z,7.40
2018-10-16T16:02:57.993Z,6.93
2018-10-16T16:05:03.702Z,7.00
2018-10-16T16:07:09.194Z,7.47
2018-10-16T16:09:14.919Z,6.70
2018-10-16T16:11:21.016Z,7.53
2018-10-16T16:13:26.797Z,7.43
2018-10-16T16:15:32.095Z,6.80
2018-10-16T16:17:37.804Z,7.40
2018-10-16T16:19:43.758Z,7.83
2018-10-16T16:21:50.659Z,7.60
2018-10-16T16:23:57.273Z,7.80
2018-10-16T16:26:03.156Z,8.30
2018-10-16T16:28:11.559Z,8.87
2018-10-16T16:30:18.347Z,8.17
2018-10-16T16:32:23.823Z,8.40
2018-10-16T16:34:29.635Z,8.43
2018-10-16T16:36:35.604Z,7.90
2018-10-16T16:38:41.271Z,8.43
2018-10-16T16:40:46.987Z,9.50
2018-10-16T16:42:52.436Z,8.13
2018-10-16T16:44:57.820Z,7.90
2018-10-16T16:47:03.184Z,8.57
2018-10-16T16:49:08.689Z,8.60
2018-10-16T16:51:14.410Z,8.47
2018-10-16T16:53:19.745Z,8.17
2018-10-16T16:55:25.167Z,8.50
2018-10-16T16:57:30.780Z,8.43
2018-10-16T16:59:36.112Z,8.50
2018-10-16T17:01:41.691Z,8.63
2018-10-16T17:03:47.448Z,7.97
2018-10-16T17:05:53.301Z,7.90
2018-10-16T17:07:59.139Z,8.40
2018-10-16T17:10:04.491Z,7.87
2018-10-16T17:12:09.793Z,8.67
2018-10-16T17:14:15.220Z,7.70
2018-10-16T17:16:20.136Z,8.90
2018-10-16T17:18:26.512Z,8.33
2018-10-16T17:20:32.319Z,8.23
2018-10-16T17:22:38.386Z,8.30
2018-10-16T17:24:44.187Z,9.47
2018-10-16T17:26:49.866Z,8.13
2018-10-16T17:28:55.202Z,8.90
2018-10-16T17:31:01.084Z,8.07
2018-10-16T17:33:06.958Z,9.13
2018-10-16T17:35:12.880Z,8.70
2018-10-16T17:37:18.569Z,8.93
2018-10-16T17:39:24.514Z,8.47
2018-10-16T17:41:30.483Z,9.20
2018-10-16T17:43:36.429Z,9.03
2018-10-16T17:45:41.958Z,8.47
2018-10-16T17:47:47.573Z,9.40
2018-10-16T17:49:52.967Z,8.03
2018-10-16T17:51:58.503Z,8.80
2018-10-16T17:54:03.881Z,8.10
2018-10-16T17:56:09.638Z,8.80
2018-10-16T17:58:14.925Z,8.47
2018-10-16T18:00:21.505Z,9.33
2018-10-16T18:02:27.492Z,7.90
2018-10-16T18:04:33.608Z,8.10
2018-10-16T18:06:39.563Z,9.13
2018-10-16T18:08:45.284Z,9.13
2018-10-16T18:10:50.940Z,9.33
2018-10-16T18:12:56.993Z,7.47
2018-10-16T18:15:02.769Z,9.63
2018-10-16T18:17:08.530Z,8.90
2018-10-16T18:19:14.033Z,9.33
2018-10-16T18:21:19.522Z,8.13
2018-10-16T18:23:25.015Z,8.70
2018-10-16T18:25:30.352Z,9.70
2018-10-16T18:27:36.318Z,9.30
2018-10-16T18:29:42.353Z,8.63
2018-10-16T18:31:48.325Z,9.53
2018-10-16T18:33:55.701Z,9.77
2018-10-16T18:36:01.160Z,8.70
2018-10-16T18:38:07.069Z,9.03
2018-10-16T18:40:13.912Z,8.77
2018-10-16T18:42:19.272Z,8.80
2018-10-16T18:44:25.252Z,9.43
2018-10-16T18:46:31.198Z,8.63
2018-10-16T18:48:37.409Z,9.60
2018-10-16T18:50:43.037Z,9.10
2018-10-16T18:52:49.177Z,9.10
2018-10-16T18:54:55.129Z,8.53
2018-10-16T18:57:00.745Z,10.00
2018-10-16T18:59:06.123Z,9.77
2018-10-16T19:01:11.902Z,8.03
2018-10-16T19:03:17.479Z,9.40
2018-10-16T19:05:22.719Z,9.47
2018-10-16T19:07:28.010Z,8.60
2018-10-16T19:09:33.741Z,7.73
2018-10-16T19:11:39.347Z,9.23
2018-10-16T19:13:45.444Z,8.13
2018-10-16T19:15:50.876Z,8.07
2018-10-16T19:17:56.767Z,8.47
2018-10-16T19:20:02.839Z,8.47
2018-10-16T19:22:08.111Z,9.93
2018-10-16T19:24:13.689Z,8.43
2018-10-16T19:26:19.506Z,8.13
2018-10-16T19:28:25.212Z,9.13
2018-10-16T19:30:30.842Z,7.10
2018-10-16T19:32:36.496Z,9.50
2018-10-16T19:34:42.071Z,8.50
2018-10-16T19:36:47.553Z,8.43
2018-10-16T19:38:53.836Z,8.60
2018-10-16T19:40:59.582Z,7.83
2018-10-16T19:43:05.448Z,7.60
2018-10-16T19:45:11.734Z,8.10
2018-10-16T19:47:18.780Z,7.80
2018-10-16T19:49:24.912Z,7.87
2018-10-16T19:51:30.814Z,7.43
2018-10-16T19:53:37.179Z,8.13
2018-10-16T19:55:42.996Z,7.70
2018-10-16T19:57:49.223Z,7.43
2018-10-16T19:59:55.796Z,8.70
2018-10-16T20:02:01.787Z,7.97
2018-10-16T20:04:07.449Z,7.07
2018-10-16T20:06:13.270Z,8.13
2018-10-16T20:08:19.436Z,7.17
2018-10-16T20:10:24.711Z,8.03
2018-10-16T20:12:30.208Z,7.60
2018-10-16T20:14:35.937Z,8.20
2018-10-16T20:16:41.621Z,7.50
2018-10-16T20:18:47.818Z,7.30
2018-10-16T20:20:53.401Z,7.87
2018-10-16T20:22:59.141Z,8.10
2018-10-16T20:25:04.902Z,7.20
2018-10-16T20:27:10.657Z,6.50
2018-10-16T20:29:21.609Z,8.70
2018-10-16T20:31:27.592Z,7.40
2018-10-16T20:33:33.111Z,7.50
2018-10-16T20:35:38.814Z,8.20
2018-10-16T20:37:44.596Z,7.30
2018-10-16T20:39:50.276Z,7.40
2018-10-16T20:41:56.382Z,7.33
2018-10-16T20:44:02.031Z,7.93
2018-10-16T20:46:08.139Z,7.30
2018-10-16T20:48:13.965Z,7.60
2018-10-16T20:50:19.416Z,6.87
2018-10-16T20:52:25.068Z,7.03
2018-10-16T20:54:30.446Z,7.40
2018-10-16T20:56:36.091Z,8.10
2018-10-16T20:58:42.531Z,7.30
2018-10-16T21:00:50.528Z,7.03
2018-10-16T21:02:57.942Z,7.73
2018-10-16T21:05:04.664Z,6.83
2018-10-16T21:07:10.396Z,7.47
2018-10-16T21:09:15.890Z,6.33
2018-10-16T21:11:21.364Z,7.10
2018-10-16T21:13:26.500Z,6.73
2018-10-16T21:15:31.866Z,6.70
2018-10-16T21:17:37.428Z,6.70
2018-10-16T21:19:45.137Z,6.97
2018-10-16T21:21:50.994Z,7.50
2018-10-16T21:23:56.584Z,8.00
2018-10-16T21:26:02.400Z,7.33
2018-10-16T21:28:08.361Z,7.33
2018-10-16T21:30:14.442Z,7.40
2018-10-16T21:32:19.867Z,7.93
2018-10-16T21:34:25.533Z,6.83
2018-10-16T21:36:30.870Z,8.30
2018-10-16T21:38:37.563Z,8.47
2018-10-16T21:40:43.539Z,8.70
2018-10-16T21:42:49.151Z,8.97
2018-10-16T21:44:54.780Z,10.03
2018-10-16T21:47:00.618Z,9.80
2018-10-16T21:49:06.572Z,9.03
2018-10-16T21:51:12.987Z,9.70
2018-10-16T21:53:18.163Z,9.30
2018-10-16T21:55:23.730Z,9.53
2018-10-16T21:57:29.351Z,10.00
2018-10-16T21:59:34.854Z,10.33
2018-10-16T22:01:44.836Z,9.50
2018-10-16T22:03:49.866Z,10.20
2018-10-16T22:05:55.445Z,10.00
2018-10-16T22:08:02.547Z,9.27
2018-10-16T22:10:09.583Z,10.30
2018-10-16T22:12:15.430Z,8.70
2018-10-16T22:14:21.373Z,9.40
2018-10-16T22:16:27.188Z,8.67
2018-10-16T22:18:32.494Z,8.40
2018-10-16T22:20:38.255Z,9.63
2018-10-16T22:22:44.292Z,8.70
2018-10-16T22:24:50.561Z,8.67
2018-10-16T22:26:56.677Z,8.40
2018-10-16T22:29:04.036Z,7.50
2018-10-16T22:31:10.158Z,8.83
2018-10-16T22:33:16.102Z,9.90
2018-10-16T22:35:21.000Z,10.90
2018-10-16T22:37:26.622Z,10.93
2018-10-16T22:39:33.309Z,10.50
2018-10-16T22:41:38.947Z,11.93
2018-10-16T22:43:44.194Z,16.37
2018-10-16T22:45:49.572Z,13.73
2018-10-16T22:47:54.429Z,13.80
2018-10-16T22:50:00.685Z,13.30
2018-10-16T22:52:06.113Z,11.80
2018-10-16T22:54:11.007Z,12.20
2018-10-16T22:56:16.023Z,12.40
2018-10-16T22:58:21.046Z,12.50
2018-10-16T23:00:26.018Z,14.40
2018-10-16T23:02:31.339Z,12.47
2018-10-16T23:04:37.369Z,15.80
2018-10-16T23:06:43.126Z,14.97
2018-10-16T23:08:48.928Z,13.50
2018-10-16T23:10:54.620Z,14.10
2018-10-16T23:13:09.793Z,13.07
2018-10-16T23:15:15.405Z,14.27
2018-10-16T23:17:20.676Z,12.07
2018-10-16T23:19:26.306Z,12.50
2018-10-16T23:21:32.149Z,12.43
2018-10-16T23:23:38.649Z,13.03
2018-10-16T23:25:43.962Z,11.20
2018-10-16T23:27:50.246Z,11.67
2018-10-16T23:29:55.844Z,10.67
2018-10-16T23:32:01.154Z,10.40
2018-10-16T23:34:06.606Z,10.43
2018-10-16T23:36:13.054Z,10.70
2018-10-16T23:38:18.411Z,10.23
2018-10-16T23:40:23.342Z,11.10
2018-10-16T23:42:28.938Z,9.80
2018-10-16T23:44:34.065Z,10.80
2018-10-16T23:46:39.911Z,10.70
2018-10-16T23:48:45.650Z,12.00
2018-10-16T23:50:51.426Z,10.73
2018-10-16T23:52:57.013Z,11.70
2018-10-16T23:55:02.727Z,10.83
2018-10-16T23:57:08.158Z,12.00
2018-10-16T23:59:13.712Z,17.13
